Archival Weather

Heathrow

London, United Kingdom (EGLL)

Report from: Friday, June 21, 2024 2:50 PM BST
Current time: Sunday, July 14, 2024 11:55 AM BST

Current weather – Weather history – Daily summaries
Weather forecast

Temperature25.0°C (77.0°F)
Dew point8.0°C (46.4°F)
Winds 10 kts (5.1 m/s, 11.5 mph) Vrb
Winds variableWinds variable from South (190°) to West-Northwest (290°)
Visibility6.2 mi. (10 km)
Clouds Sky clear
Altimeter29.88 in.Hg (1012 mB)
Relative humidity34 %
Density altitude1,356 ft. (413 m)
Remarks Fully automated report
Corrected report
No clouds detected
No significant changes expected in the next two hours
Flight conditions Visual Meteorological Conditions
Raw dataCOR EGLL 211350Z AUTO 25010KT 190V290 9999 NCD 25/08 Q1012 NOSIG
An error has occurred. This application may no longer respond until reloaded. Reload 🗙